Time;durP1;ratioP1;P1;durP2;ratioP2;P2;SDS_P1;SDS_P2;PMS_P1;PMS_P2;Temp;Humidity;BMP_temperature;BMP_pressure;BME280_temperature;BME280_humidity;BME280_pressure;Samples;Min_cycle;Max_cycle;Signal;HPM_P1;HPM_P2
2022/04/02 00:00:28;;;;;;;;;;;4.00;99.90;;;;;;4934880;29;20025;-88
2022/04/02 00:02:54;;;;;;;;;;;3.90;99.90;;;;;;4935025;29;20305;-88
2022/04/02 00:05:19;;;;;;;;;;;3.90;99.90;;;;;;4933606;29;19911;-88
2022/04/02 00:07:45;;;;;;;;;;;3.90;99.90;;;;;;4934600;29;19911;-88
2022/04/02 00:10:11;;;;;;;;;;;3.90;99.90;;;;;;4934860;29;19911;-89
2022/04/02 00:12:36;;;;;;;;;;;3.90;99.90;;;;;;4934682;29;20022;-88
2022/04/02 00:15:02;;;;;;;;;;;3.90;99.90;;;;;;4934742;29;19911;-87
2022/04/02 00:17:27;;;;;;;;;;;3.90;99.90;;;;;;4917680;29;20127;-89
2022/04/02 00:19:54;;;;;;;;;;;4.00;99.90;;;;;;4934736;29;20426;-88
2022/04/02 00:22:19;;;;;;;;;;;3.90;99.90;;;;;;4933409;29;19919;-88
2022/04/02 00:24:46;;;;;;;;;;;4.00;99.90;;;;;;4934362;29;19914;-88
2022/04/02 00:27:11;;;;;;;;;;;4.00;99.90;;;;;;4934449;29;20056;-87
2022/04/02 00:29:38;;;;;;;;;;;4.00;99.90;;;;;;4934199;29;20018;-87
2022/04/02 00:32:07;;;;;;;;;;;3.90;99.90;;;;;;4934482;29;19911;-88
2022/04/02 00:34:32;;;;;;;;;;;4.00;99.90;;;;;;4934351;29;19911;-88
2022/04/02 00:36:58;;;;;;;;;;;3.80;99.90;;;;;;4934454;29;20383;-87
2022/04/02 00:39:23;;;;;;;;;;;3.90;99.90;;;;;;4934426;29;20009;-88
2022/04/02 00:41:49;;;;;;;;;;;3.90;99.90;;;;;;4917140;29;19956;-88
2022/04/02 00:44:20;;;;;;;;;;;3.80;99.90;;;;;;4934270;29;19934;-87
2022/04/02 00:46:47;;;;;;;;;;;3.80;99.90;;;;;;4932799;29;20280;-88
2022/04/02 00:49:13;;;;;;;;;;;3.80;99.90;;;;;;4934231;29;19911;-88
2022/04/02 00:51:42;;;;;;;;;;;3.70;99.90;;;;;;4934219;29;19970;-88
2022/04/02 00:54:09;;;;;;;;;;;3.80;99.90;;;;;;4933066;29;20001;-88
2022/04/02 00:56:38;;;;;;;;;;;3.70;99.90;;;;;;4932680;29;19911;-88
2022/04/02 00:59:04;;;;;;;;;;;3.70;99.90;;;;;;4934495;29;20367;-88
2022/04/02 01:01:31;;;;;;;;;;;3.70;99.90;;;;;;4932427;29;19926;-88
2022/04/02 01:03:58;;;;;;;;;;;3.70;99.90;;;;;;4933905;29;20387;-89
2022/04/02 01:06:23;;;;;;;;;;;3.70;99.90;;;;;;4933831;29;19917;-87
2022/04/02 01:08:49;;;;;;;;;;;3.80;99.90;;;;;;4931927;29;19989;-88
2022/04/02 01:11:14;;;;;;;;;;;3.70;99.90;;;;;;4934101;29;19911;-87
2022/04/02 01:13:40;;;;;;;;;;;3.70;99.90;;;;;;4933748;29;20020;-88
2022/04/02 01:16:06;;;;;;;;;;;3.70;99.90;;;;;;4932534;29;19991;-88
2022/04/02 01:18:31;;;;;;;;;;;3.70;99.90;;;;;;4933760;29;19911;-88
2022/04/02 01:20:58;;;;;;;;;;;3.70;99.90;;;;;;4933572;29;19966;-88
2022/04/02 01:23:29;;;;;;;;;;;3.70;99.90;;;;;;4933837;29;20375;-87
2022/04/02 01:25:58;;;;;;;;;;;3.60;99.90;;;;;;4933822;29;19942;-88
2022/04/02 01:28:24;;;;;;;;;;;3.60;99.90;;;;;;4933656;29;20276;-88
2022/04/02 01:30:50;;;;;;;;;;;3.70;99.90;;;;;;4932018;29;19930;-89
2022/04/02 01:33:15;;;;;;;;;;;3.70;99.90;;;;;;4933979;29;19911;-88
2022/04/02 01:35:41;;;;;;;;;;;3.70;99.90;;;;;;4916695;29;19915;-87
2022/04/02 01:38:07;;;;;;;;;;;3.60;99.90;;;;;;4933773;29;19915;-88
2022/04/02 01:40:32;;;;;;;;;;;3.70;99.90;;;;;;4916527;29;19919;-87
2022/04/02 01:42:58;;;;;;;;;;;3.70;99.90;;;;;;4933587;29;19915;-88
2022/04/02 01:45:23;;;;;;;;;;;3.70;99.90;;;;;;4933419;29;19918;-88
2022/04/02 01:47:51;;;;;;;;;;;3.70;99.90;;;;;;4933676;29;19915;-88
2022/04/02 01:50:17;;;;;;;;;;;3.70;99.90;;;;;;4933660;29;19958;-87
2022/04/02 01:52:43;;;;;;;;;;;3.60;99.90;;;;;;4933393;29;19958;-88
2022/04/02 01:55:09;;;;;;;;;;;3.60;99.90;;;;;;4932249;29;19911;-88
2022/04/02 01:57:34;;;;;;;;;;;3.60;99.90;;;;;;4933425;29;19918;-88
2022/04/02 02:00:00;;;;;;;;;;;3.50;99.90;;;;;;4933128;29;20287;-88
2022/04/02 02:02:26;;;;;;;;;;;3.50;99.90;;;;;;4932075;29;19911;-88
2022/04/02 02:04:52;;;;;;;;;;;3.50;99.90;;;;;;4933388;29;19911;-89
2022/04/02 02:07:18;;;;;;;;;;;3.50;99.90;;;;;;4932292;29;20052;-88
2022/04/02 02:09:44;;;;;;;;;;;3.40;99.90;;;;;;4933290;29;19986;-89
2022/04/02 02:12:10;;;;;;;;;;;3.40;99.90;;;;;;4933431;29;20315;-88
2022/04/02 02:14:36;;;;;;;;;;;3.40;99.90;;;;;;4933164;29;19911;-89
2022/04/02 02:17:01;;;;;;;;;;;3.40;99.90;;;;;;4933010;29;20387;-88
2022/04/02 02:19:27;;;;;;;;;;;3.50;99.90;;;;;;4933139;29;20277;-89
2022/04/02 02:21:52;;;;;;;;;;;3.50;99.90;;;;;;4936886;29;20371;-88
2022/04/02 02:24:18;;;;;;;;;;;3.40;99.90;;;;;;4919819;29;20284;-88
2022/04/02 02:26:44;;;;;;;;;;;3.40;99.90;;;;;;4936766;29;20495;-88
2022/04/02 02:29:09;;;;;;;;;;;3.40;99.90;;;;;;4938910;29;19919;-88
2022/04/02 02:31:35;;;;;;;;;;;3.40;99.90;;;;;;4936279;29;20401;-89
2022/04/02 02:36:46;;;;;;;;;;;3.40;99.90;;;;;;4936422;29;20331;-88
2022/04/02 02:39:11;;;;;;;;;;;3.30;99.90;;;;;;4936518;29;19915;-88
2022/04/02 02:41:37;;;;;;;;;;;3.40;99.90;;;;;;4936716;29;19965;-88
2022/04/02 02:44:03;;;;;;;;;;;3.40;99.90;;;;;;4936378;29;20278;-88
2022/04/02 02:46:28;;;;;;;;;;;3.40;99.90;;;;;;4936198;29;19918;-87
2022/04/02 02:48:54;;;;;;;;;;;3.40;99.90;;;;;;4936202;29;20380;-88
2022/04/02 02:51:19;;;;;;;;;;;3.30;99.90;;;;;;4936144;29;20003;-88
2022/04/02 02:53:45;;;;;;;;;;;3.40;99.90;;;;;;4934659;29;19910;-88
2022/04/02 02:56:11;;;;;;;;;;;3.40;99.90;;;;;;4936110;29;19911;-88
2022/04/02 02:58:36;;;;;;;;;;;3.40;99.90;;;;;;4934724;29;19990;-88
2022/04/02 03:01:02;;;;;;;;;;;3.40;99.90;;;;;;4935939;29;19919;-88
2022/04/02 03:03:27;;;;;;;;;;;3.30;99.90;;;;;;4936050;29;19937;-88
2022/04/02 03:05:53;;;;;;;;;;;3.30;99.90;;;;;;4936126;29;19966;-88
2022/04/02 03:08:19;;;;;;;;;;;3.30;99.90;;;;;;4935846;29;19933;-88
2022/04/02 03:10:45;;;;;;;;;;;3.30;99.90;;;;;;4935721;29;20051;-88
2022/04/02 03:13:11;;;;;;;;;;;3.30;99.90;;;;;;4935803;29;20376;-88
2022/04/02 03:15:36;;;;;;;;;;;3.30;99.90;;;;;;4935552;29;20395;-88
2022/04/02 03:18:03;;;;;;;;;;;3.20;99.90;;;;;;4934666;29;19911;-89
2022/04/02 03:20:29;;;;;;;;;;;3.20;99.90;;;;;;4935680;29;19919;-88
2022/04/02 03:22:54;;;;;;;;;;;3.30;99.90;;;;;;4934439;29;19911;-88
2022/04/02 03:25:21;;;;;;;;;;;3.30;99.90;;;;;;4935725;29;19911;-88
2022/04/02 03:27:46;;;;;;;;;;;3.20;99.90;;;;;;4935251;29;19918;-87
2022/04/02 03:30:13;;;;;;;;;;;3.30;99.90;;;;;;4935187;29;19926;-88
2022/04/02 03:32:39;;;;;;;;;;;3.30;99.90;;;;;;4933446;29;19962;-89
2022/04/02 03:35:05;;;;;;;;;;;3.30;99.90;;;;;;4934219;29;20340;-88
2022/04/02 03:37:31;;;;;;;;;;;3.30;99.90;;;;;;4935120;29;19915;-88
2022/04/02 03:39:57;;;;;;;;;;;3.30;99.90;;;;;;4935325;29;19910;-88
2022/04/02 03:42:23;;;;;;;;;;;3.30;99.90;;;;;;4935225;29;19919;-88
2022/04/02 03:44:48;;;;;;;;;;;3.30;99.90;;;;;;4934782;29;20344;-88
2022/04/02 03:47:15;;;;;;;;;;;3.30;99.90;;;;;;4918141;29;19910;-89
2022/04/02 03:49:46;;;;;;;;;;;3.30;99.90;;;;;;4934930;29;19959;-89
2022/04/02 03:52:12;;;;;;;;;;;3.30;99.90;;;;;;4935452;29;19911;-89
2022/04/02 03:54:39;;;;;;;;;;;3.30;99.90;;;;;;4935027;29;19914;-88
2022/04/02 03:57:05;;;;;;;;;;;3.30;99.90;;;;;;4918013;29;20368;-88
2022/04/02 03:59:31;;;;;;;;;;;3.20;99.90;;;;;;4934979;29;20013;-88
2022/04/02 04:01:57;;;;;;;;;;;3.20;99.90;;;;;;4934478;29;20017;-88
2022/04/02 04:04:22;;;;;;;;;;;3.20;99.90;;;;;;4917896;29;20368;-88
2022/04/02 04:06:48;;;;;;;;;;;3.20;99.90;;;;;;4934665;29;19921;-88
2022/04/02 04:09:14;;;;;;;;;;;3.20;99.90;;;;;;4934779;29;19911;-88
2022/04/02 04:11:39;;;;;;;;;;;3.20;99.90;;;;;;4917608;29;19918;-88
2022/04/02 04:14:05;;;;;;;;;;;3.10;99.90;;;;;;4934957;29;19918;-89
2022/04/02 04:16:30;;;;;;;;;;;3.10;99.90;;;;;;4917525;29;20368;-88
2022/04/02 04:18:56;;;;;;;;;;;3.10;99.90;;;;;;4934710;29;19970;-88
2022/04/02 04:21:22;;;;;;;;;;;3.10;99.90;;;;;;4934429;29;19926;-88
2022/04/02 04:23:47;;;;;;;;;;;3.10;99.90;;;;;;4934374;29;19927;-89
2022/04/02 04:26:13;;;;;;;;;;;3.10;99.90;;;;;;4934429;29;19953;-88
2022/04/02 04:28:39;;;;;;;;;;;3.20;99.90;;;;;;4933005;29;19954;-87
2022/04/02 04:31:04;;;;;;;;;;;3.20;99.90;;;;;;4933232;29;20001;-88
2022/04/02 04:33:34;;;;;;;;;;;3.20;99.90;;;;;;4934435;29;19914;-88
2022/04/02 04:35:59;;;;;;;;;;;3.20;99.90;;;;;;4934329;29;19933;-88
2022/04/02 04:38:25;;;;;;;;;;;3.20;99.90;;;;;;4934366;29;20439;-87
2022/04/02 04:40:51;;;;;;;;;;;3.20;99.90;;;;;;4933958;29;20414;-87
2022/04/02 04:43:16;;;;;;;;;;;3.20;99.90;;;;;;4916307;29;19911;-88
2022/04/02 04:45:42;;;;;;;;;;;3.10;99.90;;;;;;4933862;29;19911;-87
2022/04/02 04:48:07;;;;;;;;;;;3.10;99.90;;;;;;4934302;29;19911;-88
2022/04/02 04:50:34;;;;;;;;;;;3.10;99.90;;;;;;4934081;29;19914;-88
2022/04/02 04:53:00;;;;;;;;;;;3.10;99.90;;;;;;4934061;29;19911;-88
2022/04/02 04:55:25;;;;;;;;;;;3.10;99.90;;;;;;4916856;29;19915;-88
2022/04/02 04:57:51;;;;;;;;;;;3.10;99.90;;;;;;4933974;29;19919;-88
2022/04/02 05:00:18;;;;;;;;;;;3.10;99.90;;;;;;4933728;29;19946;-89
2022/04/02 05:02:46;;;;;;;;;;;3.10;99.90;;;;;;4933793;29;20419;-88
2022/04/02 05:05:12;;;;;;;;;;;3.00;99.90;;;;;;4934016;29;20015;-88
2022/04/02 05:07:38;;;;;;;;;;;3.00;99.90;;;;;;4932522;29;20424;-87
2022/04/02 05:10:04;;;;;;;;;;;3.00;99.90;;;;;;4933803;29;20002;-88
2022/04/02 05:12:31;;;;;;;;;;;3.00;99.90;;;;;;4933781;29;20006;-88
2022/04/02 05:14:56;;;;;;;;;;;3.00;99.90;;;;;;4933871;29;19998;-88
2022/04/02 05:17:22;;;;;;;;;;;3.00;99.90;;;;;;4935405;29;20384;-88
2022/04/02 05:19:48;;;;;;;;;;;3.00;99.90;;;;;;4933530;29;19918;-88
2022/04/02 05:22:14;;;;;;;;;;;2.90;99.90;;;;;;4933677;29;19925;-89
2022/04/02 05:24:39;;;;;;;;;;;3.00;99.90;;;;;;4933677;29;20300;-87
2022/04/02 05:27:05;;;;;;;;;;;3.00;99.90;;;;;;4934060;29;19907;-87
2022/04/02 05:29:30;;;;;;;;;;;2.90;99.90;;;;;;4928979;29;19923;-88
2022/04/02 05:31:56;;;;;;;;;;;2.90;99.90;;;;;;4914576;29;19922;-87
2022/04/02 05:34:21;;;;;;;;;;;2.90;99.90;;;;;;4914791;29;19951;-87
2022/04/02 05:36:47;;;;;;;;;;;2.90;99.90;;;;;;4913208;29;19919;-87
2022/04/02 05:39:21;;;;;;;;;;;2.90;99.90;;;;;;4914875;29;19918;-95
2022/04/02 05:42:21;;;;;;;;;;;2.90;99.90;;;;;;4931398;29;19978;-93
2022/04/02 05:44:47;;;;;;;;;;;2.80;99.90;;;;;;4893534;29;19945;-89
2022/04/02 05:47:12;;;;;;;;;;;2.70;99.90;;;;;;4904595;29;20235;-90
2022/04/02 05:49:38;;;;;;;;;;;2.80;99.90;;;;;;4889292;29;20137;-93
2022/04/02 05:52:04;;;;;;;;;;;2.80;99.90;;;;;;4904627;29;19994;-91
2022/04/02 05:54:30;;;;;;;;;;;2.80;99.90;;;;;;4904756;29;19946;-88
2022/04/02 05:56:56;;;;;;;;;;;2.80;99.90;;;;;;4908228;29;19907;-89
2022/04/02 05:59:22;;;;;;;;;;;2.80;99.90;;;;;;4892695;29;19911;-90
2022/04/02 06:01:48;;;;;;;;;;;2.80;99.90;;;;;;4908103;29;19915;-88
2022/04/02 06:04:14;;;;;;;;;;;2.90;99.90;;;;;;4908338;29;19922;-89
2022/04/02 06:06:40;;;;;;;;;;;2.90;99.90;;;;;;4892648;29;19935;-89
2022/04/02 06:09:05;;;;;;;;;;;2.90;99.90;;;;;;4908099;29;19908;-89
2022/04/02 06:11:31;;;;;;;;;;;3.00;99.90;;;;;;4892270;29;19946;-90
2022/04/02 06:13:57;;;;;;;;;;;3.00;99.90;;;;;;4891976;29;19923;-90
2022/04/02 06:16:23;;;;;;;;;;;3.00;99.90;;;;;;4937961;29;20052;-89
2022/04/02 06:18:49;;;;;;;;;;;3.10;99.90;;;;;;4946916;29;19914;-89
2022/04/02 06:21:15;;;;;;;;;;;3.00;99.90;;;;;;4947820;29;19915;-89
2022/04/02 06:23:42;;;;;;;;;;;3.00;99.90;;;;;;4930886;29;20159;-90
2022/04/02 06:26:08;;;;;;;;;;;3.00;99.90;;;;;;4931021;29;19906;-89
2022/04/02 06:28:34;;;;;;;;;;;3.10;99.90;;;;;;4946614;29;19907;-89
2022/04/02 06:30:59;;;;;;;;;;;3.20;99.90;;;;;;4947359;29;20245;-89
2022/04/02 06:33:25;;;;;;;;;;;3.20;99.90;;;;;;4930659;29;19918;-89
2022/04/02 06:35:51;;;;;;;;;;;3.20;99.90;;;;;;4947681;29;19950;-89
2022/04/02 06:38:17;;;;;;;;;;;3.20;99.90;;;;;;4930855;29;19914;-90
2022/04/02 06:40:42;;;;;;;;;;;3.20;99.90;;;;;;4947555;29;20223;-90
2022/04/02 06:43:08;;;;;;;;;;;3.30;99.90;;;;;;4930644;29;19906;-89
2022/04/02 06:45:34;;;;;;;;;;;3.40;99.90;;;;;;4946299;29;20148;-89
2022/04/02 06:47:59;;;;;;;;;;;3.40;99.90;;;;;;4947739;29;19982;-89
2022/04/02 06:50:25;;;;;;;;;;;3.40;99.90;;;;;;4930609;29;20100;-90
2022/04/02 06:52:50;;;;;;;;;;;3.40;99.90;;;;;;4947688;29;19913;-89
2022/04/02 06:55:19;;;;;;;;;;;3.50;99.90;;;;;;4947458;29;20215;-91
2022/04/02 06:57:49;;;;;;;;;;;3.60;99.90;;;;;;4947326;29;19914;-90
2022/04/02 07:00:15;;;;;;;;;;;3.60;99.90;;;;;;4944454;29;19922;-89
2022/04/02 07:02:41;;;;;;;;;;;3.60;99.90;;;;;;4947038;29;19966;-90
2022/04/02 07:05:07;;;;;;;;;;;3.60;99.90;;;;;;4946951;29;19907;-89
2022/04/02 07:07:33;;;;;;;;;;;3.70;99.90;;;;;;4946006;29;19978;-89
2022/04/02 07:09:58;;;;;;;;;;;3.70;99.90;;;;;;4946856;29;19907;-90
2022/04/02 07:12:24;;;;;;;;;;;3.70;99.90;;;;;;4930006;29;19906;-90
2022/04/02 07:14:49;;;;;;;;;;;3.80;99.90;;;;;;4930324;29;19906;-91
2022/04/02 07:17:15;;;;;;;;;;;3.90;99.90;;;;;;4946635;29;20097;-90
2022/04/02 07:19:40;;;;;;;;;;;4.00;99.90;;;;;;4929740;29;19906;-89
2022/04/02 07:22:08;;;;;;;;;;;4.10;99.90;;;;;;4929669;29;20168;-90
2022/04/02 07:24:34;;;;;;;;;;;4.20;99.90;;;;;;4949769;29;19914;-90
2022/04/02 07:27:00;;;;;;;;;;;4.20;99.90;;;;;;4952823;29;19910;-90
2022/04/02 07:29:26;;;;;;;;;;;4.40;99.90;;;;;;4929541;29;20103;-90
2022/04/02 07:31:52;;;;;;;;;;;4.40;99.90;;;;;;4944054;29;19911;-90
2022/04/02 07:34:18;;;;;;;;;;;4.50;99.90;;;;;;4946758;29;20175;-90
2022/04/02 07:36:57;;;;;;;;;;;4.60;99.90;;;;;;4946296;29;19911;-90
2022/04/02 07:39:32;;;;;;;;;;;4.60;99.90;;;;;;4945479;29;19914;-90
2022/04/02 07:41:57;;;;;;;;;;;4.70;99.90;;;;;;4945171;29;20111;-90
2022/04/02 07:44:35;;;;;;;;;;;4.70;99.90;;;;;;4946444;29;20092;-90
2022/04/02 07:47:01;;;;;;;;;;;4.60;99.90;;;;;;4945471;29;19913;-88
2022/04/02 07:49:28;;;;;;;;;;;4.70;99.90;;;;;;4946465;29;20092;-89
2022/04/02 07:51:54;;;;;;;;;;;4.80;99.90;;;;;;4945225;29;19907;-88
2022/04/02 07:54:24;;;;;;;;;;;4.90;99.90;;;;;;4946246;29;20099;-91
2022/04/02 07:56:51;;;;;;;;;;;4.90;99.90;;;;;;4946454;29;19907;-91
2022/04/02 07:59:30;;;;;;;;;;;5.00;99.90;;;;;;4945738;29;19907;-91
2022/04/02 08:01:57;;;;;;;;;;;5.10;99.90;;;;;;4944844;29;19915;-92
2022/04/02 08:04:24;;;;;;;;;;;5.00;99.90;;;;;;4945704;29;19954;-90
2022/04/02 08:06:51;;;;;;;;;;;5.20;99.90;;;;;;4945688;29;19914;-90
2022/04/02 08:09:18;;;;;;;;;;;5.30;99.90;;;;;;4944002;29;19934;-91
2022/04/02 08:11:43;;;;;;;;;;;5.40;99.90;;;;;;4945044;29;20202;-91
2022/04/02 08:14:09;;;;;;;;;;;5.60;99.90;;;;;;4942267;29;19911;-91
2022/04/02 08:16:42;;;;;;;;;;;5.70;99.90;;;;;;4942005;29;19907;-91
2022/04/02 08:19:09;;;;;;;;;;;5.70;99.90;;;;;;4935910;29;19911;-91
2022/04/02 08:21:35;;;;;;;;;;;5.70;99.90;;;;;;4935062;29;19918;-90
2022/04/02 08:24:02;;;;;;;;;;;5.90;99.90;;;;;;4934958;29;20391;-91
2022/04/02 08:29:34;;;;;;;;;;;6.00;99.90;;;;;;5227720;23;19955;-94
2022/04/02 08:32:19;;;;;;;;;;;6.00;99.90;;;;;;4915754;29;19922;-96
2022/04/02 08:38:13;;;;;;;;;;;6.10;99.90;;;;;;4858735;29;19919;-93
2022/04/02 08:40:57;;;;;;;;;;;6.20;99.90;;;;;;4907274;29;19919;-86
2022/04/02 08:43:41;;;;;;;;;;;6.20;99.90;;;;;;4915596;29;19911;-86
2022/04/02 08:46:12;;;;;;;;;;;6.30;99.90;;;;;;4915402;29;20179;-85
2022/04/02 08:48:44;;;;;;;;;;;6.30;99.90;;;;;;4915427;29;19919;-86
2022/04/02 08:51:13;;;;;;;;;;;6.50;99.90;;;;;;4915374;29;19958;-85
2022/04/02 08:53:41;;;;;;;;;;;6.60;99.90;;;;;;4915165;29;20388;-85
2022/04/02 08:56:09;;;;;;;;;;;6.60;99.90;;;;;;4915521;29;20010;-88
2022/04/02 08:58:40;;;;;;;;;;;6.70;99.90;;;;;;4914157;29;19911;-85
2022/04/02 09:01:08;;;;;;;;;;;6.80;99.90;;;;;;4898101;29;20022;-86
2022/04/02 09:03:42;;;;;;;;;;;6.70;99.90;;;;;;4913825;29;19994;-86
2022/04/02 09:06:17;;;;;;;;;;;6.90;99.90;;;;;;4915237;29;19912;-87
2022/04/02 09:08:58;;;;;;;;;;;6.90;99.90;;;;;;4897857;29;19911;-87
2022/04/02 09:11:32;;;;;;;;;;;7.00;99.90;;;;;;4914932;29;20306;-79
2022/04/02 09:14:17;;;;;;;;;;;7.10;99.90;;;;;;4915520;29;19954;-88
2022/04/02 09:16:42;;;;;;;;;;;7.20;99.90;;;;;;4898228;29;20383;-79
2022/04/02 09:19:08;;;;;;;;;;;7.30;99.90;;;;;;4915177;29;19926;-80
2022/04/02 09:21:39;;;;;;;;;;;7.30;99.90;;;;;;4914784;29;19948;-80
2022/04/02 09:24:11;;;;;;;;;;;7.40;99.90;;;;;;4917039;29;19949;-80
2022/04/02 09:26:36;;;;;;;;;;;7.50;99.90;;;;;;4914943;29;19911;-80
2022/04/02 09:29:15;;;;;;;;;;;7.60;99.90;;;;;;4915422;29;19934;-80
2022/04/02 09:31:59;;;;;;;;;;;7.50;99.90;;;;;;4921940;29;20191;-80
2022/04/02 09:34:43;;;;;;;;;;;7.70;99.90;;;;;;4921461;29;20170;-80
2022/04/02 09:37:27;;;;;;;;;;;7.70;99.90;;;;;;4923944;29;19911;-80
2022/04/02 09:40:09;;;;;;;;;;;7.80;99.90;;;;;;4923060;29;19911;-79
2022/04/02 09:42:41;;;;;;;;;;;8.00;99.90;;;;;;4920878;29;19919;-79
2022/04/02 09:45:09;;;;;;;;;;;8.10;99.60;;;;;;4920945;29;20064;-79
2022/04/02 09:47:53;;;;;;;;;;;8.20;99.70;;;;;;4924181;29;20402;-79
2022/04/02 09:50:21;;;;;;;;;;;8.30;99.20;;;;;;4920800;29;20378;-79
2022/04/02 09:52:56;;;;;;;;;;;8.30;98.60;;;;;;4920866;29;19911;-79
2022/04/02 09:55:44;;;;;;;;;;;8.30;97.70;;;;;;4921331;29;19915;-79
2022/04/02 09:58:09;;;;;;;;;;;8.20;98.00;;;;;;4892201;29;19934;-90
2022/04/02 10:00:48;;;;;;;;;;;8.20;98.20;;;;;;4922551;29;20368;-85
2022/04/02 10:03:36;;;;;;;;;;;8.10;97.90;;;;;;4920920;29;20395;-85
2022/04/02 10:06:20;;;;;;;;;;;8.10;97.40;;;;;;4920527;29;19915;-85
2022/04/02 10:09:05;;;;;;;;;;;8.30;97.00;;;;;;4920151;29;19918;-83
2022/04/02 10:11:33;;;;;;;;;;;8.50;96.90;;;;;;4922768;29;19912;-85
2022/04/02 10:13:59;;;;;;;;;;;8.70;97.60;;;;;;4921280;29;19911;-85
2022/04/02 10:16:26;;;;;;;;;;;8.80;95.80;;;;;;4921108;29;19911;-86
2022/04/02 10:18:52;;;;;;;;;;;8.90;95.70;;;;;;4921246;29;19922;-85
2022/04/02 10:21:19;;;;;;;;;;;8.90;95.40;;;;;;4920755;29;19923;-85
2022/04/02 10:23:48;;;;;;;;;;;9.00;95.40;;;;;;4920613;29;19915;-85
2022/04/02 10:26:17;;;;;;;;;;;9.20;94.90;;;;;;4920488;29;19915;-85
2022/04/02 10:29:01;;;;;;;;;;;9.50;95.40;;;;;;4920329;29;19946;-85
2022/04/02 10:31:26;;;;;;;;;;;9.60;95.90;;;;;;4921898;29;20001;-85
2022/04/02 10:33:54;;;;;;;;;;;9.80;94.40;;;;;;4915349;29;19954;-85
2022/04/02 10:36:20;;;;;;;;;;;9.70;93.10;;;;;;4901923;29;19962;-86
2022/04/02 10:38:48;;;;;;;;;;;9.50;94.00;;;;;;4903106;29;20606;-85
2022/04/02 10:41:16;;;;;;;;;;;9.20;93.00;;;;;;4917558;29;19923;-86
2022/04/02 10:44:03;;;;;;;;;;;9.00;93.70;;;;;;4918111;29;19911;-87
2022/04/02 10:46:31;;;;;;;;;;;8.90;95.00;;;;;;4913008;29;19915;-87
2022/04/02 10:49:00;;;;;;;;;;;8.70;93.90;;;;;;4918084;29;20365;-87
2022/04/02 10:51:27;;;;;;;;;;;8.60;94.00;;;;;;4917604;29;19954;-87
2022/04/02 10:54:04;;;;;;;;;;;8.60;94.70;;;;;;4915309;29;19966;-87
2022/04/02 10:56:41;;;;;;;;;;;8.70;94.00;;;;;;4917550;29;19912;-88
2022/04/02 10:59:08;;;;;;;;;;;8.80;94.20;;;;;;4917107;29;19918;-87
2022/04/02 11:01:34;;;;;;;;;;;9.00;93.80;;;;;;4917087;29;19926;-87
2022/04/02 11:04:04;;;;;;;;;;;9.20;91.80;;;;;;4935211;29;20243;-87
2022/04/02 11:06:46;;;;;;;;;;;9.40;92.00;;;;;;4917461;29;19911;-87
2022/04/02 11:09:31;;;;;;;;;;;9.70;91.10;;;;;;4916767;29;20195;-87
2022/04/02 11:11:58;;;;;;;;;;;9.90;90.10;;;;;;4916765;29;19912;-87
2022/04/02 11:14:24;;;;;;;;;;;10.00;90.60;;;;;;4916132;29;19912;-90
2022/04/02 11:16:49;;;;;;;;;;;10.30;90.90;;;;;;4918525;29;19959;-92
2022/04/02 11:22:07;;;;;;;;;;;10.00;91.70;;;;;;4918125;29;19974;-88
2022/04/02 11:24:55;;;;;;;;;;;9.70;91.10;;;;;;4917146;29;19918;-88
2022/04/02 11:27:22;;;;;;;;;;;9.50;90.80;;;;;;4916878;29;19945;-87
2022/04/02 11:29:51;;;;;;;;;;;9.70;90.00;;;;;;4916468;29;19923;-90
2022/04/02 11:32:23;;;;;;;;;;;9.90;88.30;;;;;;4916108;29;19922;-88
2022/04/02 11:34:50;;;;;;;;;;;10.10;88.50;;;;;;4915919;29;19911;-88
2022/04/02 11:37:19;;;;;;;;;;;10.30;87.00;;;;;;4916883;29;19907;-88
2022/04/02 11:39:52;;;;;;;;;;;10.60;85.40;;;;;;4915843;29;19923;-87
2022/04/02 11:42:24;;;;;;;;;;;10.80;84.60;;;;;;4916350;29;19919;-79
2022/04/02 11:44:50;;;;;;;;;;;10.90;86.50;;;;;;4917466;29;19911;-80
2022/04/02 11:47:24;;;;;;;;;;;10.70;85.10;;;;;;4917973;29;19911;-79
2022/04/02 11:49:52;;;;;;;;;;;10.80;87.00;;;;;;4916902;29;19911;-79
2022/04/02 11:52:18;;;;;;;;;;;10.80;85.80;;;;;;4916352;29;20328;-79
2022/04/02 11:54:48;;;;;;;;;;;10.90;87.10;;;;;;4915637;29;20591;-80
2022/04/02 11:57:14;;;;;;;;;;;10.80;87.30;;;;;;4917197;29;19911;-80
2022/04/02 11:59:50;;;;;;;;;;;10.40;86.20;;;;;;4916605;29;19919;-79
2022/04/02 12:02:52;;;;;;;;;;;10.10;88.60;;;;;;4916720;29;19926;-79
2022/04/02 12:05:17;;;;;;;;;;;10.30;91.40;;;;;;4822623;29;20003;-79
2022/04/02 12:07:47;;;;;;;;;;;10.70;90.40;;;;;;4896336;29;20010;-79
2022/04/02 12:10:13;;;;;;;;;;;10.80;86.40;;;;;;4915989;29;19911;-79
2022/04/02 12:12:49;;;;;;;;;;;10.90;85.80;;;;;;4917248;29;19918;-80
2022/04/02 12:15:15;;;;;;;;;;;11.20;86.00;;;;;;4917338;29;19915;-80
2022/04/02 12:17:45;;;;;;;;;;;11.70;85.40;;;;;;4916138;29;19911;-79
2022/04/02 12:20:11;;;;;;;;;;;12.00;83.90;;;;;;4915865;29;20387;-80
2022/04/02 12:22:39;;;;;;;;;;;12.20;82.80;;;;;;4922780;29;19919;-79
2022/04/02 12:25:06;;;;;;;;;;;12.00;79.90;;;;;;4917947;29;20103;-79
2022/04/02 12:27:33;;;;;;;;;;;11.60;80.40;;;;;;4921556;29;20038;-79
2022/04/02 12:29:59;;;;;;;;;;;11.10;82.60;;;;;;4916940;29;20388;-79
2022/04/02 12:32:31;;;;;;;;;;;11.20;85.00;;;;;;4923609;29;20211;-80
2022/04/02 12:34:58;;;;;;;;;;;11.20;81.50;;;;;;4916536;29;19911;-80
2022/04/02 12:37:27;;;;;;;;;;;11.00;80.30;;;;;;4915631;29;19939;-79
2022/04/02 12:39:52;;;;;;;;;;;11.10;80.80;;;;;;4915502;29;19949;-79
2022/04/02 12:42:38;;;;;;;;;;;11.30;79.90;;;;;;4915430;29;20415;-79
2022/04/02 12:45:08;;;;;;;;;;;11.50;78.80;;;;;;4915637;29;19935;-79
2022/04/02 12:47:35;;;;;;;;;;;11.80;80.00;;;;;;4918106;29;19915;-79
2022/04/02 12:50:10;;;;;;;;;;;11.70;82.60;;;;;;4916989;29;19965;-79
2022/04/02 12:52:49;;;;;;;;;;;11.50;80.60;;;;;;4916357;29;19911;-79
2022/04/02 12:55:17;;;;;;;;;;;11.50;82.00;;;;;;4919827;29;20295;-79
2022/04/02 12:57:54;;;;;;;;;;;11.60;81.10;;;;;;4919737;29;19966;-79
2022/04/02 13:00:26;;;;;;;;;;;11.50;78.50;;;;;;4915445;29;19922;-79
2022/04/02 13:02:59;;;;;;;;;;;11.90;78.80;;;;;;4915705;29;19923;-79
2022/04/02 13:05:25;;;;;;;;;;;12.30;80.00;;;;;;4923405;29;19930;-79
2022/04/02 13:07:57;;;;;;;;;;;12.40;78.60;;;;;;4916569;29;19982;-79
2022/04/02 13:10:23;;;;;;;;;;;12.10;79.00;;;;;;4916218;29;19970;-91
2022/04/02 13:12:51;;;;;;;;;;;11.80;79.20;;;;;;4915019;29;19961;-88
2022/04/02 13:15:17;;;;;;;;;;;11.40;81.30;;;;;;4919267;29;19941;-88
2022/04/02 13:20:28;;;;;;;;;;;11.10;80.80;;;;;;4916287;29;19947;-88
2022/04/02 13:20:34;;;;;;;;;;;11.00;82.50;;;;;;4915252;29;19911;-87
2022/04/02 13:23:01;;;;;;;;;;;11.60;81.00;;;;;;4916759;29;19975;-87
2022/04/02 13:25:29;;;;;;;;;;;11.90;76.80;;;;;;4915595;29;20296;-88
2022/04/02 13:28:11;;;;;;;;;;;12.30;74.80;;;;;;4919626;29;19918;-89
2022/04/02 13:30:39;;;;;;;;;;;12.40;72.70;;;;;;4897886;29;19970;-88
2022/04/02 13:33:07;;;;;;;;;;;12.40;74.70;;;;;;4916976;29;19938;-87
2022/04/02 13:35:38;;;;;;;;;;;12.20;73.30;;;;;;4915359;29;20386;-88
2022/04/02 13:38:23;;;;;;;;;;;12.00;73.70;;;;;;4916329;29;20396;-87
2022/04/02 13:40:51;;;;;;;;;;;11.90;75.00;;;;;;4913055;29;19915;-87
2022/04/02 13:43:36;;;;;;;;;;;12.20;75.30;;;;;;4914717;29;19915;-87
2022/04/02 13:46:06;;;;;;;;;;;12.70;76.30;;;;;;4914751;29;19923;-88
2022/04/02 13:48:34;;;;;;;;;;;13.20;73.60;;;;;;4898732;29;19911;-90
2022/04/02 13:51:06;;;;;;;;;;;13.00;74.40;;;;;;4914583;29;19915;-87
2022/04/02 13:53:36;;;;;;;;;;;12.50;74.30;;;;;;4914836;29;19915;-87
2022/04/02 13:56:11;;;;;;;;;;;12.10;76.90;;;;;;4914518;29;19911;-88
2022/04/02 13:58:46;;;;;;;;;;;11.90;74.30;;;;;;4915703;29;20007;-89
2022/04/02 14:01:16;;;;;;;;;;;11.70;76.90;;;;;;4915324;29;19916;-88
2022/04/02 14:03:46;;;;;;;;;;;11.50;76.30;;;;;;4915836;29;19922;-87
2022/04/02 14:06:12;;;;;;;;;;;11.50;78.20;;;;;;4913101;29;20379;-87
2022/04/02 14:08:38;;;;;;;;;;;11.70;76.90;;;;;;4913663;29;20395;-88
2022/04/02 14:11:10;;;;;;;;;;;12.40;77.80;;;;;;4914708;29;19911;-87
2022/04/02 14:13:41;;;;;;;;;;;13.10;74.90;;;;;;4915503;29;19917;-87
2022/04/02 14:16:11;;;;;;;;;;;13.20;74.10;;;;;;4916229;29;19939;-88
2022/04/02 14:18:36;;;;;;;;;;;12.90;73.80;;;;;;4918113;29;19919;-88
2022/04/02 14:21:04;;;;;;;;;;;12.50;74.20;;;;;;4917822;29;19919;-88
2022/04/02 14:23:48;;;;;;;;;;;12.20;74.90;;;;;;4917792;29;20380;-88
2022/04/02 14:26:23;;;;;;;;;;;11.90;75.40;;;;;;4918848;29;19918;-87
2022/04/02 14:28:49;;;;;;;;;;;11.80;75.60;;;;;;4918077;29;20451;-88
2022/04/02 14:31:27;;;;;;;;;;;11.70;74.60;;;;;;4900803;29;19915;-88
2022/04/02 14:33:52;;;;;;;;;;;11.80;74.90;;;;;;4919791;29;19911;-87
2022/04/02 14:36:21;;;;;;;;;;;13.50;75.60;;;;;;4901095;29;19918;-88
2022/04/02 14:39:05;;;;;;;;;;;14.90;73.50;;;;;;4917979;29;19962;-88
2022/04/02 14:41:49;;;;;;;;;;;16.00;70.40;;;;;;4923627;29;19915;-81
2022/04/02 14:44:33;;;;;;;;;;;18.10;67.80;;;;;;4927711;29;19908;-77
2022/04/02 14:47:17;;;;;;;;;;;18.90;66.20;;;;;;4927376;29;19946;-80